Time;durP1;ratioP1;P1;durP2;ratioP2;P2;SDS_P1;SDS_P2;PMS_P1;PMS_P2;Temp;Humidity;BMP_temperature;BMP_pressure;BME280_temperature;BME280_humidity;BME280_pressure;Samples;Min_cycle;Max_cycle;Signal;HPM_P1;HPM_P2
2022/08/17 00:01:07;;;;;;;44.35;40.13;;;22.20;99.90;;;;;;5025051;28;20580;-75
2022/08/17 00:03:37;;;;;;;46.03;41.53;;;22.10;99.90;;;;;;5021423;28;20057;-74
2022/08/17 00:06:15;;;;;;;46.15;41.75;;;22.10;99.90;;;;;;5027277;28;20049;-74
2022/08/17 00:08:43;;;;;;;46.78;42.28;;;22.00;99.90;;;;;;5023925;28;20042;-74
2022/08/17 00:11:14;;;;;;;45.30;41.22;;;21.90;99.90;;;;;;5024008;28;20508;-75
2022/08/17 00:13:47;;;;;;;47.42;43.03;;;21.80;99.90;;;;;;5025943;28;20093;-75
2022/08/17 00:16:17;;;;;;;47.70;43.15;;;21.80;99.90;;;;;;5027501;28;20440;-75
2022/08/17 00:18:43;;;;;;;48.80;44.13;;;21.70;99.90;;;;;;5026256;28;20077;-74
2022/08/17 00:21:10;;;;;;;50.15;45.40;;;21.70;99.90;;;;;;5026854;28;20072;-75
2022/08/17 00:23:37;;;;;;;54.13;48.85;;;21.60;99.90;;;;;;5026044;28;20037;-75
2022/08/17 00:26:03;;;;;;;55.13;49.78;;;21.60;99.90;;;;;;5022532;28;20404;-74
2022/08/17 00:28:28;;;;;;;52.47;47.50;;;21.60;99.90;;;;;;5019803;28;20038;-75
2022/08/17 00:30:54;;;;;;;50.67;45.83;;;21.60;99.90;;;;;;5020020;28;20484;-75
2022/08/17 00:33:28;;;;;;;53.63;48.42;;;21.50;99.90;;;;;;5026221;28;20045;-74
2022/08/17 00:35:54;;;;;;;52.17;47.33;;;21.50;99.90;;;;;;5041352;28;20053;-75
2022/08/17 00:38:21;;;;;;;52.72;47.42;;;21.40;99.90;;;;;;5025584;28;20208;-75
2022/08/17 00:40:53;;;;;;;50.80;45.65;;;21.40;99.90;;;;;;5024441;28;20476;-74
2022/08/17 00:43:27;;;;;;;51.28;46.42;;;21.40;99.90;;;;;;5019500;28;20068;-74
2022/08/17 00:45:53;;;;;;;51.55;46.53;;;21.50;99.90;;;;;;5018463;28;20099;-74
2022/08/17 00:48:19;;;;;;;51.13;46.50;;;21.50;99.90;;;;;;5019064;28;20039;-74
2022/08/17 00:51:05;;;;;;;50.63;45.87;;;21.40;99.90;;;;;;5030063;28;20400;-74
2022/08/17 00:53:34;;;;;;;50.87;46.13;;;21.40;99.90;;;;;;5021273;28;20589;-75
2022/08/17 00:56:03;;;;;;;52.08;47.33;;;21.40;99.90;;;;;;5031078;28;20192;-75
2022/08/17 00:58:31;;;;;;;49.45;44.83;;;21.40;99.90;;;;;;5026322;28;20116;-74
2022/08/17 01:01:00;;;;;;;48.78;44.20;;;21.30;99.90;;;;;;5026455;28;20059;-75
2022/08/17 01:03:28;;;;;;;50.30;45.60;;;21.30;99.90;;;;;;5026284;28;20043;-74
2022/08/17 01:05:57;;;;;;;49.72;45.15;;;21.30;99.90;;;;;;5029602;28;20049;-74
2022/08/17 01:08:28;;;;;;;50.60;45.88;;;21.30;99.90;;;;;;5017661;28;20049;-74
2022/08/17 01:10:57;;;;;;;48.65;44.15;;;21.30;99.90;;;;;;5026556;28;20042;-75
2022/08/17 01:13:24;;;;;;;47.75;43.45;;;21.30;99.90;;;;;;5027983;28;20141;-75
2022/08/17 01:16:04;;;;;;;49.55;44.80;;;21.30;99.90;;;;;;5031112;28;20041;-75
2022/08/17 01:18:31;;;;;;;49.00;44.28;;;21.30;99.90;;;;;;5026029;28;20547;-75
2022/08/17 01:21:06;;;;;;;50.72;46.03;;;21.30;99.90;;;;;;5027570;28;20200;-74
2022/08/17 01:23:31;;;;;;;51.33;46.30;;;21.30;99.90;;;;;;5026741;28;20095;-75
2022/08/17 01:26:00;;;;;;;49.65;44.80;;;21.20;99.90;;;;;;5022628;28;20396;-75
2022/08/17 01:28:32;;;;;;;52.58;47.67;;;21.20;99.90;;;;;;5025803;28;20044;-74
2022/08/17 01:31:01;;;;;;;53.50;48.22;;;21.20;99.90;;;;;;5018560;28;20053;-74
2022/08/17 01:33:28;;;;;;;50.45;45.55;;;21.20;99.90;;;;;;5028818;28;20099;-74
2022/08/17 01:35:54;;;;;;;53.37;47.93;;;21.10;99.90;;;;;;5027862;28;20053;-74
2022/08/17 01:38:20;;;;;;;51.53;46.33;;;21.10;99.90;;;;;;5025940;28;20505;-75
2022/08/17 01:40:50;;;;;;;52.58;47.58;;;21.10;99.90;;;;;;5026952;28;20048;-74
2022/08/17 01:43:23;;;;;;;51.40;46.65;;;21.10;99.90;;;;;;5021811;28;20056;-74
2022/08/17 01:45:53;;;;;;;52.05;47.13;;;21.10;99.90;;;;;;5026280;28;20488;-74
2022/08/17 01:48:19;;;;;;;49.42;44.88;;;21.00;99.90;;;;;;5026749;28;20550;-74
2022/08/17 01:50:47;;;;;;;50.95;46.25;;;21.00;99.90;;;;;;5027552;28;20394;-74
2022/08/17 01:53:23;;;;;;;51.03;46.22;;;21.00;99.90;;;;;;5021262;28;20071;-75
2022/08/17 01:55:52;;;;;;;50.53;45.80;;;21.00;99.90;;;;;;5023712;28;20065;-75
2022/08/17 01:58:19;;;;;;;47.85;43.15;;;21.00;99.90;;;;;;5026545;28;20042;-75
2022/08/17 02:00:47;;;;;;;47.60;43.42;;;21.00;99.90;;;;;;5027744;28;20045;-75
2022/08/17 02:03:13;;;;;;;48.83;44.22;;;21.00;99.90;;;;;;5025636;28;20125;-74
2022/08/17 02:05:39;;;;;;;49.10;44.63;;;20.90;99.90;;;;;;5028880;28;20132;-75
2022/08/17 02:08:08;;;;;;;48.50;43.97;;;20.90;99.90;;;;;;5026857;28;20042;-75
2022/08/17 02:10:34;;;;;;;48.13;43.50;;;20.90;99.90;;;;;;5028788;28;20048;-74
2022/08/17 02:13:02;;;;;;;50.65;45.83;;;20.90;99.90;;;;;;5023380;28;20041;-75
2022/08/17 02:15:28;;;;;;;48.42;44.13;;;20.90;99.90;;;;;;5030299;28;20561;-75
2022/08/17 02:17:53;;;;;;;47.80;43.45;;;20.90;99.90;;;;;;5025858;28;20049;-73
2022/08/17 02:20:19;;;;;;;49.42;44.75;;;20.90;99.90;;;;;;5026997;28;20049;-74
2022/08/17 02:22:46;;;;;;;47.40;43.08;;;20.90;99.90;;;;;;5026803;28;20033;-74
2022/08/17 02:25:15;;;;;;;49.50;44.80;;;20.90;99.90;;;;;;5021541;28;20076;-74
2022/08/17 02:27:41;;;;;;;49.30;44.85;;;20.90;99.90;;;;;;5022251;28;20124;-74
2022/08/17 02:30:09;;;;;;;47.67;43.25;;;20.90;99.90;;;;;;5029117;28;20125;-75
2022/08/17 02:32:35;;;;;;;46.55;42.15;;;20.90;99.90;;;;;;5027422;28;20136;-74
2022/08/17 02:35:02;;;;;;;48.53;44.23;;;20.90;99.90;;;;;;5025854;28;20034;-74
2022/08/17 02:37:29;;;;;;;46.45;42.28;;;20.80;99.90;;;;;;5027059;28;20045;-75
2022/08/17 02:39:58;;;;;;;48.85;44.28;;;20.80;99.90;;;;;;5027634;28;20099;-75
2022/08/17 02:42:31;;;;;;;49.45;44.92;;;20.80;99.90;;;;;;5024134;28;20117;-74
2022/08/17 02:44:57;;;;;;;48.25;43.67;;;20.80;99.90;;;;;;5026086;28;20075;-75
2022/08/17 02:47:24;;;;;;;49.50;44.92;;;20.80;99.90;;;;;;5026064;28;20041;-74
2022/08/17 02:49:49;;;;;;;47.50;42.95;;;20.80;99.90;;;;;;5026586;28;20496;-74
2022/08/17 02:52:15;;;;;;;46.30;41.88;;;20.80;99.90;;;;;;5025476;28;20045;-75
2022/08/17 02:54:40;;;;;;;47.50;43.17;;;20.80;99.90;;;;;;5027944;28;20033;-75
2022/08/17 02:57:06;;;;;;;48.53;43.90;;;20.80;99.90;;;;;;5026230;28;20080;-74
2022/08/17 02:59:32;;;;;;;45.80;41.50;;;20.80;99.90;;;;;;5026842;28;20120;-74
2022/08/17 03:01:57;;;;;;;49.05;44.35;;;20.80;99.90;;;;;;5023916;28;20056;-75
2022/08/17 03:04:23;;;;;;;46.05;42.05;;;20.80;99.90;;;;;;5027565;28;20084;-74
2022/08/17 03:06:48;;;;;;;47.97;43.33;;;20.80;99.90;;;;;;5024060;28;20108;-74
2022/08/17 03:09:15;;;;;;;47.30;43.00;;;20.80;99.90;;;;;;5028544;28;20073;-74
2022/08/17 03:11:41;;;;;;;49.45;44.55;;;20.80;99.90;;;;;;5024176;28;20109;-74
2022/08/17 03:14:07;;;;;;;48.35;43.60;;;20.80;99.90;;;;;;5021627;28;20404;-74
2022/08/17 03:16:33;;;;;;;47.55;43.10;;;20.70;99.90;;;;;;5026828;28;20038;-74
2022/08/17 03:18:58;;;;;;;48.00;43.67;;;20.70;99.90;;;;;;5023813;28;20124;-74
2022/08/17 03:21:24;;;;;;;49.30;44.80;;;20.70;99.90;;;;;;5028864;28;20099;-75
2022/08/17 03:23:50;;;;;;;49.03;44.33;;;20.70;99.90;;;;;;5027575;28;20045;-74
2022/08/17 03:26:15;;;;;;;47.40;43.03;;;20.60;99.90;;;;;;5026277;28;20547;-74
2022/08/17 03:28:41;;;;;;;50.53;45.92;;;20.60;99.90;;;;;;5025317;28;20378;-74
2022/08/17 03:31:07;;;;;;;47.42;43.03;;;20.50;99.90;;;;;;5025065;28;20037;-74
2022/08/17 03:33:33;;;;;;;47.30;42.88;;;20.50;99.90;;;;;;5026379;28;20045;-75
2022/08/17 03:35:59;;;;;;;49.83;45.25;;;20.60;99.90;;;;;;5028164;28;20731;-74
2022/08/17 03:38:25;;;;;;;49.85;45.35;;;20.60;99.90;;;;;;5025625;28;20148;-75
2022/08/17 03:40:52;;;;;;;50.22;45.47;;;20.60;99.90;;;;;;5025357;28;20493;-74
2022/08/17 03:43:19;;;;;;;51.88;47.13;;;20.60;99.90;;;;;;5025427;28;20037;-75
2022/08/17 03:56:59;;;;;;;53.20;48.13;;;20.50;99.90;;;;;;5021076;28;20049;-74
2022/08/17 03:59:25;;;;;;;53.00;47.88;;;20.60;99.90;;;;;;5022249;28;20046;-74
2022/08/17 04:01:53;;;;;;;50.50;45.78;;;20.50;99.90;;;;;;5027817;28;20140;-75
2022/08/17 04:04:19;;;;;;;49.08;44.47;;;20.50;99.90;;;;;;5026961;28;20152;-74
2022/08/17 04:06:46;;;;;;;50.25;45.35;;;20.60;99.90;;;;;;5026038;28;20526;-75
2022/08/17 04:09:12;;;;;;;50.45;45.45;;;20.60;99.90;;;;;;5023840;28;20133;-75
2022/08/17 04:11:38;;;;;;;51.28;46.58;;;20.60;99.90;;;;;;5026458;28;20183;-75
2022/08/17 04:14:04;;;;;;;47.90;43.47;;;20.60;99.90;;;;;;5025437;28;20033;-74
2022/08/17 04:16:30;;;;;;;50.17;45.57;;;20.60;99.90;;;;;;5024810;28;20054;-74
2022/08/17 04:18:56;;;;;;;51.15;45.95;;;20.70;99.90;;;;;;5023793;28;20389;-74
2022/08/17 04:21:22;;;;;;;49.78;45.15;;;20.70;99.90;;;;;;5025616;28;20053;-74
2022/08/17 04:23:49;;;;;;;52.13;47.10;;;20.70;99.90;;;;;;5026393;28;20120;-75
2022/08/17 04:26:15;;;;;;;51.80;46.90;;;20.70;99.90;;;;;;5029316;28;20064;-75
2022/08/17 04:28:42;;;;;;;51.10;46.50;;;20.70;99.90;;;;;;5026488;28;20052;-75
2022/08/17 04:31:12;;;;;;;54.45;49.30;;;20.60;99.90;;;;;;5030172;28;20056;-75
2022/08/17 04:33:38;;;;;;;51.60;46.58;;;20.70;99.90;;;;;;5029247;28;20041;-74
2022/08/17 04:36:06;;;;;;;51.95;47.20;;;20.60;99.90;;;;;;5045837;28;20060;-74
2022/08/17 04:38:37;;;;;;;52.50;47.60;;;20.60;99.90;;;;;;5028012;28;20057;-75
2022/08/17 04:43:53;;;;;;;52.38;47.55;;;20.60;99.90;;;;;;5029738;28;20049;-74
2022/08/17 04:46:21;;;;;;;52.08;46.97;;;20.50;99.90;;;;;;5031958;28;20049;-74
2022/08/17 04:48:49;;;;;;;51.67;46.78;;;20.50;99.90;;;;;;5029673;28;20041;-74
2022/08/17 04:51:22;;;;;;;52.05;47.13;;;20.60;99.90;;;;;;5028026;28;20057;-75
2022/08/17 04:53:51;;;;;;;52.58;47.58;;;20.50;99.90;;;;;;5028725;28;20088;-75
2022/08/17 04:56:17;;;;;;;54.00;48.42;;;20.50;99.90;;;;;;5026626;28;20060;-74
2022/08/17 04:58:45;;;;;;;52.45;47.45;;;20.50;99.90;;;;;;5027351;28;20072;-74
2022/08/17 05:01:11;;;;;;;53.60;48.30;;;20.50;99.90;;;;;;5031667;28;20044;-74
2022/08/17 05:03:36;;;;;;;54.20;48.97;;;20.40;99.90;;;;;;5030117;28;20408;-74
2022/08/17 05:06:02;;;;;;;53.80;48.65;;;20.40;99.90;;;;;;5025027;28;20045;-74
2022/08/17 05:08:28;;;;;;;53.88;48.60;;;20.40;99.90;;;;;;5028972;28;20099;-74
2022/08/17 05:10:54;;;;;;;54.47;49.47;;;20.40;99.90;;;;;;5028003;28;20144;-74
2022/08/17 05:13:22;;;;;;;55.17;49.50;;;20.40;99.90;;;;;;5026466;28;20052;-74
2022/08/17 05:15:52;;;;;;;54.55;49.15;;;20.30;99.90;;;;;;5030614;28;20052;-75
2022/08/17 05:18:18;;;;;;;54.22;48.92;;;20.30;99.90;;;;;;5029677;28;20034;-74
2022/08/17 05:20:44;;;;;;;53.63;48.60;;;20.30;99.90;;;;;;5021219;28;20058;-74
2022/08/17 05:23:12;;;;;;;54.05;48.85;;;20.30;99.90;;;;;;5029747;28;20056;-74
2022/08/17 05:25:44;;;;;;;54.15;49.00;;;20.30;99.90;;;;;;5024233;28;20468;-74
2022/08/17 05:28:10;;;;;;;54.85;49.72;;;20.30;99.90;;;;;;5026288;28;20042;-74
2022/08/17 05:30:37;;;;;;;52.92;48.15;;;20.30;99.90;;;;;;5028557;28;20033;-75
2022/08/17 05:33:09;;;;;;;53.70;48.67;;;20.30;99.90;;;;;;5028575;28;20082;-74
2022/08/17 05:35:38;;;;;;;54.22;49.20;;;20.30;99.90;;;;;;5027954;28;20496;-74
2022/08/17 05:38:04;;;;;;;53.58;48.72;;;20.30;99.90;;;;;;5026395;28;20182;-74
2022/08/17 05:40:30;;;;;;;53.03;47.87;;;20.30;99.90;;;;;;5029282;28;20128;-74
2022/08/17 05:43:14;;;;;;;52.05;47.33;;;20.30;99.90;;;;;;5028225;28;20396;-74
2022/08/17 05:45:52;;;;;;;52.92;47.92;;;20.30;99.90;;;;;;5029954;28;20049;-74
2022/08/17 05:48:18;;;;;;;51.47;46.55;;;20.30;99.90;;;;;;5025972;28;20116;-74
2022/08/17 05:51:25;;;;;;;53.90;48.97;;;20.30;99.90;;;;;;5030762;28;20144;-74
2022/08/17 05:54:08;;;;;;;54.63;49.47;;;20.40;99.90;;;;;;5029055;28;20056;-77
2022/08/17 05:56:56;;;;;;;53.55;48.58;;;20.40;99.90;;;;;;5028540;28;20045;-76
2022/08/17 05:59:40;;;;;;;53.50;48.38;;;20.40;99.90;;;;;;5024034;28;20712;-75
2022/08/17 06:02:08;;;;;;;52.80;47.60;;;20.40;99.90;;;;;;5024929;28;20045;-75
2022/08/17 06:05:02;;;;;;;50.55;45.50;;;20.40;99.90;;;;;;5022664;28;20085;-74
2022/08/17 06:07:48;;;;;;;50.70;45.88;;;20.50;99.90;;;;;;5021060;28;20108;-75
2022/08/17 06:10:36;;;;;;;52.08;47.20;;;20.50;99.90;;;;;;5026230;28;20540;-75
2022/08/17 06:13:20;;;;;;;49.30;44.60;;;20.60;99.90;;;;;;5025797;28;20048;-74
2022/08/17 06:16:08;;;;;;;50.83;45.80;;;20.60;99.90;;;;;;5026615;28;20038;-76
2022/08/17 06:18:52;;;;;;;50.90;45.90;;;20.60;99.90;;;;;;5027840;28;20083;-76
2022/08/17 06:21:19;;;;;;;52.35;47.15;;;20.60;99.90;;;;;;5026686;28;20077;-76
2022/08/17 06:23:54;;;;;;;50.92;46.13;;;20.60;99.90;;;;;;5026304;28;20184;-76
2022/08/17 06:26:24;;;;;;;52.15;46.83;;;20.60;99.90;;;;;;5025530;28;20052;-76
2022/08/17 06:28:53;;;;;;;52.00;47.03;;;20.70;99.90;;;;;;5022688;28;20037;-76
2022/08/17 06:31:26;;;;;;;53.65;48.35;;;20.70;99.90;;;;;;5025934;28;20045;-76
2022/08/17 06:33:54;;;;;;;51.65;46.55;;;20.70;99.90;;;;;;5025337;28;20447;-76
2022/08/17 06:36:41;;;;;;;48.17;43.58;;;20.70;99.90;;;;;;5024748;28;20041;-76
2022/08/17 06:39:25;;;;;;;51.15;46.05;;;20.70;99.90;;;;;;5025106;28;20049;-77
2022/08/17 06:42:18;;;;;;;47.75;43.15;;;20.80;99.90;;;;;;5023476;28;20040;-76
2022/08/17 06:45:12;;;;;;;47.58;42.88;;;20.80;99.90;;;;;;5025295;28;20063;-76
2022/08/17 06:47:52;;;;;;;44.25;40.15;;;20.90;99.90;;;;;;5024379;28;20046;-77
2022/08/17 06:50:30;;;;;;;47.03;42.38;;;20.90;99.90;;;;;;5030757;28;20041;-77
2022/08/17 06:53:19;;;;;;;43.63;39.63;;;21.00;99.90;;;;;;5025130;28;20053;-77
2022/08/17 06:56:10;;;;;;;44.45;40.25;;;21.10;99.90;;;;;;5027885;28;20064;-76
2022/08/17 06:58:38;;;;;;;42.13;38.15;;;21.20;99.90;;;;;;5013467;28;20239;-76
2022/08/17 07:01:14;;;;;;;43.42;39.30;;;21.20;99.90;;;;;;5025635;28;20107;-76
2022/08/17 07:04:04;;;;;;;46.00;41.47;;;21.30;99.90;;;;;;5028406;28;20092;-75
2022/08/17 07:06:37;;;;;;;42.72;38.63;;;21.40;99.90;;;;;;5019177;28;20492;-76
2022/08/17 07:09:16;;;;;;;42.95;39.05;;;21.40;99.90;;;;;;5029406;28;20055;-76
2022/08/17 07:12:04;;;;;;;41.90;37.90;;;21.50;99.90;;;;;;5027504;28;20084;-76
2022/08/17 07:14:29;;;;;;;41.85;37.92;;;21.60;99.90;;;;;;5027549;28;20747;-77
2022/08/17 07:17:00;;;;;;;40.53;36.58;;;21.70;99.90;;;;;;5023267;28;20045;-73
2022/08/17 07:19:30;;;;;;;43.03;39.05;;;21.70;99.90;;;;;;5024171;28;20424;-76
2022/08/17 07:22:05;;;;;;;41.45;37.63;;;21.80;99.90;;;;;;5023477;28;20053;-77
2022/08/17 07:24:40;;;;;;;37.95;34.42;;;21.80;99.90;;;;;;5026491;28;20084;-78
2022/08/17 07:27:26;;;;;;;40.05;36.15;;;21.90;99.90;;;;;;5023886;28;20044;-75
2022/08/17 07:30:06;;;;;;;41.25;37.35;;;22.00;99.90;;;;;;5021536;28;20056;-77
2022/08/17 07:32:38;;;;;;;41.65;37.70;;;22.10;99.90;;;;;;5024738;28;20523;-79
2022/08/17 07:35:07;;;;;;;39.60;35.80;;;22.10;99.90;;;;;;5027354;28;20072;-79
2022/08/17 07:37:35;;;;;;;40.33;36.13;;;22.20;99.90;;;;;;5030800;28;20155;-81
2022/08/17 07:40:15;;;;;;;38.85;34.78;;;22.30;99.90;;;;;;5025129;28;20045;-86
2022/08/17 07:42:42;;;;;;;36.85;33.45;;;22.50;99.90;;;;;;5014816;28;20033;-88
2022/08/17 07:48:17;;;;;;;35.97;32.67;;;22.70;99.90;;;;;;5028587;28;20305;-85
2022/08/17 07:50:38;;;;;;;37.28;33.88;;;23.00;99.90;;;;;;5029062;28;20319;-80
2022/08/17 07:53:24;;;;;;;38.22;34.42;;;23.00;99.90;;;;;;5028010;28;20050;-77
2022/08/17 07:55:52;;;;;;;35.80;32.42;;;23.00;99.90;;;;;;5024537;28;20481;-76
2022/08/17 07:58:22;;;;;;;35.20;31.85;;;23.00;99.90;;;;;;5028673;28;20132;-78
2022/08/17 08:01:09;;;;;;;36.20;32.72;;;23.10;99.90;;;;;;5031492;28;20049;-83
2022/08/17 08:03:41;;;;;;;34.78;31.67;;;23.30;99.90;;;;;;5032403;28;20100;-77
2022/08/17 08:06:20;;;;;;;35.78;32.40;;;23.30;99.90;;;;;;5029828;28;20045;-77
2022/08/17 08:08:51;;;;;;;35.83;32.38;;;23.40;99.90;;;;;;5029971;28;20048;-77
2022/08/17 08:11:35;;;;;;;35.97;32.72;;;23.40;99.90;;;;;;5027154;28;20038;-77
2022/08/17 08:14:25;;;;;;;38.17;34.70;;;23.50;99.90;;;;;;5025515;28;20481;-78
2022/08/17 08:17:04;;;;;;;37.50;34.00;;;23.40;99.90;;;;;;5028856;28;20041;-77
2022/08/17 08:19:30;;;;;;;38.30;34.78;;;23.40;99.90;;;;;;5032529;28;20056;-75
2022/08/17 08:21:59;;;;;;;33.03;29.70;;;23.40;99.90;;;;;;5031505;28;20481;-77
2022/08/17 08:24:44;;;;;;;36.88;33.25;;;23.40;99.90;;;;;;5031603;28;20133;-78
2022/08/17 08:27:47;;;;;;;37.58;33.75;;;23.50;99.90;;;;;;5029468;28;20516;-76
2022/08/17 08:30:20;;;;;;;34.85;31.42;;;23.50;99.90;;;;;;5030251;28;20444;-76
2022/08/17 08:33:22;;;;;;;33.13;29.73;;;23.50;99.90;;;;;;5031230;28;20115;-79
2022/08/17 08:36:11;;;;;;;33.95;30.77;;;23.50;99.90;;;;;;5033785;28;20052;-83
2022/08/17 08:39:04;;;;;;;33.30;30.33;;;23.40;99.90;;;;;;5018588;28;20049;-77
2022/08/17 08:41:57;;;;;;;33.70;30.35;;;23.40;99.90;;;;;;5031086;28;20108;-77
2022/08/17 08:44:35;;;;;;;32.53;29.30;;;23.30;99.90;;;;;;5027483;28;20053;-78
2022/08/17 08:47:07;;;;;;;30.85;28.02;;;23.30;99.90;;;;;;5029749;28;20460;-78
2022/08/17 08:50:02;;;;;;;31.98;28.63;;;23.30;99.90;;;;;;5031790;28;20088;-77
2022/08/17 08:52:40;;;;;;;31.20;28.30;;;23.30;99.90;;;;;;5019725;28;20061;-78
2022/08/17 08:55:18;;;;;;;34.00;30.90;;;23.30;99.90;;;;;;5027338;28;20059;-74
2022/08/17 08:58:01;;;;;;;33.22;30.25;;;23.30;99.90;;;;;;5028370;28;20045;-78
2022/08/17 09:00:34;;;;;;;34.50;31.40;;;23.20;99.90;;;;;;5031584;28;20500;-80
2022/08/17 09:03:09;;;;;;;33.47;30.30;;;23.20;99.90;;;;;;5027621;28;20053;-79
2022/08/17 09:05:54;;;;;;;33.10;29.75;;;23.10;99.90;;;;;;5025408;28;20435;-76
2022/08/17 09:08:41;;;;;;;32.90;29.92;;;23.10;99.90;;;;;;5026427;28;20057;-76
2022/08/17 09:11:35;;;;;;;31.15;28.15;;;23.20;99.90;;;;;;5025418;28;20144;-73
2022/08/17 09:14:22;;;;;;;35.72;32.33;;;23.20;99.90;;;;;;5029036;28;20041;-75
2022/08/17 09:17:11;;;;;;;35.53;32.08;;;23.20;99.90;;;;;;5027007;28;20373;-82
2022/08/17 09:20:04;;;;;;;36.38;33.08;;;23.10;99.90;;;;;;5022507;28;20137;-79
2022/08/17 09:22:35;;;;;;;37.20;33.53;;;23.10;99.90;;;;;;5023615;28;20049;-79
2022/08/17 09:25:14;;;;;;;36.20;32.85;;;23.10;99.90;;;;;;5029965;28;20041;-81
2022/08/17 09:27:49;;;;;;;37.28;33.58;;;23.10;99.90;;;;;;5027313;28;20046;-82
2022/08/17 09:30:17;;;;;;;38.70;34.95;;;23.10;99.90;;;;;;5032922;28;20101;-79
2022/08/17 09:32:58;;;;;;;38.35;34.80;;;23.10;99.90;;;;;;5025989;28;20055;-83
2022/08/17 09:35:54;;;;;;;37.33;33.83;;;23.10;99.90;;;;;;5029342;28;20408;-82
2022/08/17 09:39:00;;;;;;;35.17;31.90;;;23.20;99.90;;;;;;5027504;28;20061;-79
2022/08/17 09:41:47;;;;;;;35.00;31.55;;;23.40;99.90;;;;;;5029447;28;20046;-81
2022/08/17 09:44:24;;;;;;;;;;;23.40;99.90;;;;;;5029589;28;20049;-80
2022/08/17 09:47:04;;;;;;;34.10;30.73;;;23.50;99.90;;;;;;5019855;28;19936;-82
2022/08/17 09:49:41;;;;;;;32.95;29.73;;;23.70;99.90;;;;;;5030734;28;20080;-76
2022/08/17 09:52:22;;;;;;;33.10;29.80;;;23.80;99.90;;;;;;5029275;28;20082;-81
2022/08/17 09:54:50;;;;;;;31.48;28.50;;;23.90;99.90;;;;;;5027559;28;20034;-80
2022/08/17 09:57:24;;;;;;;32.10;29.05;;;24.00;99.90;;;;;;5029209;28;20049;-80
2022/08/17 10:00:14;;;;;;;34.33;31.23;;;24.20;99.90;;;;;;5030443;28;20305;-79
2022/08/17 10:02:59;;;;;;;34.17;30.75;;;24.30;99.90;;;;;;5028956;28;20509;-80
2022/08/17 10:05:46;;;;;;;31.50;28.55;;;24.30;99.90;;;;;;5027737;28;20066;-80
2022/08/17 10:08:14;;;;;;;;;;;24.40;99.90;;;;;;5028447;28;20045;-80
2022/08/17 10:10:57;;;;;;;31.33;28.13;;;24.40;99.90;;;;;;5026374;28;20399;-80
2022/08/17 10:13:38;;;;;;;30.48;27.70;;;24.40;99.90;;;;;;5027426;28;20037;-81
2022/08/17 10:16:37;;;;;;;29.95;27.25;;;24.50;99.90;;;;;;5025711;28;20044;-75
2022/08/17 10:19:18;;;;;;;31.10;28.30;;;24.70;99.90;;;;;;5028434;28;20037;-76
2022/08/17 10:27:38;;;;;;;27.55;25.05;;;24.70;99.90;;;;;;5028716;28;20424;-76
2022/08/17 10:30:07;;;;;;;27.63;25.15;;;24.70;99.90;;;;;;5026644;28;20080;-75
2022/08/17 10:32:56;;;;;;;28.55;25.85;;;24.70;99.90;;;;;;5023874;28;20056;-73
2022/08/17 10:35:38;;;;;;;28.30;25.67;;;24.80;99.90;;;;;;5024732;28;20045;-72
2022/08/17 10:38:37;;;;;;;26.77;24.27;;;24.70;99.90;;;;;;5028361;28;20034;-76
2022/08/17 10:41:29;;;;;;;25.25;23.00;;;24.70;99.90;;;;;;5025292;28;20087;-74
2022/08/17 10:44:04;;;;;;;27.00;24.60;;;24.70;99.90;;;;;;5021090;28;20041;-74
2022/08/17 10:46:55;;;;;;;27.25;24.75;;;24.70;99.90;;;;;;5026138;28;20085;-78
2022/08/17 10:49:24;;;;;;;27.20;24.80;;;24.70;99.90;;;;;;5023990;28;20041;-78
2022/08/17 10:51:59;;;;;;;27.33;24.63;;;24.70;99.90;;;;;;5026243;28;20041;-81
2022/08/17 10:54:44;;;;;;;28.52;25.90;;;24.90;99.90;;;;;;5028078;28;20476;-80
2022/08/17 10:57:28;;;;;;;28.55;25.85;;;25.00;99.90;;;;;;5026889;28;20339;-80
2022/08/17 10:59:55;;;;;;;27.83;25.42;;;25.10;99.90;;;;;;5028321;28;20501;-80
2022/08/17 11:02:44;;;;;;;29.38;26.65;;;25.20;99.90;;;;;;5027681;28;20045;-78
2022/08/17 11:05:12;;;;;;;28.20;25.73;;;25.30;99.90;;;;;;5022467;28;20061;-81
2022/08/17 11:07:47;;;;;;;26.10;23.73;;;25.40;99.90;;;;;;5032811;28;20053;-80
2022/08/17 11:10:45;;;;;;;26.95;24.55;;;25.50;99.90;;;;;;5029179;28;20505;-79
2022/08/17 11:13:40;;;;;;;25.55;23.17;;;25.60;99.90;;;;;;5028723;28;20040;-78
2022/08/17 11:16:46;;;;;;;29.27;26.55;;;25.70;99.90;;;;;;5029244;28;20059;-81
2022/08/17 11:19:31;;;;;;;28.85;26.05;;;25.70;99.90;;;;;;5012572;28;21764;-78
2022/08/17 11:22:18;;;;;;;30.13;27.25;;;25.60;99.90;;;;;;5027509;28;20049;-76
2022/08/17 11:24:47;;;;;;;31.73;28.80;;;25.50;99.90;;;;;;5026348;28;20049;-76
2022/08/17 11:27:12;;;;;;;33.05;29.58;;;25.30;99.90;;;;;;5020069;28;20053;-73
2022/08/17 11:29:59;;;;;;;33.20;29.95;;;25.30;99.90;;;;;;5025677;28;20095;-73
2022/08/17 11:32:35;;;;;;;33.58;30.58;;;25.20;99.90;;;;;;4992994;28;20061;-75
2022/08/17 11:35:11;;;;;;;34.05;30.83;;;25.10;99.90;;;;;;5026140;28;20513;-75
2022/08/17 11:37:51;;;;;;;33.20;30.20;;;25.00;99.90;;;;;;5024392;28;20068;-75
2022/08/17 11:40:48;;;;;;;33.05;29.75;;;24.90;99.90;;;;;;5024432;28;20489;-75
2022/08/17 11:43:45;;;;;;;34.03;30.58;;;24.90;99.90;;;;;;5026579;28;20508;-75
2022/08/17 11:46:20;;;;;;;31.90;29.00;;;24.90;99.90;;;;;;5023851;28;20065;-72
2022/08/17 11:52:00;;;;;;;33.97;30.83;;;25.00;99.90;;;;;;5025087;28;20045;-72
2022/08/17 11:54:29;;;;;;;35.03;31.70;;;25.00;99.90;;;;;;5022668;28;20041;-72
2022/08/17 11:56:57;;;;;;;34.22;31.23;;;25.00;99.90;;;;;;5025531;28;20075;-72
2022/08/17 11:59:32;;;;;;;34.92;31.67;;;25.00;99.90;;;;;;5026670;28;20057;-72
2022/08/17 12:01:59;;;;;;;36.33;32.67;;;24.90;99.90;;;;;;5023257;28;20136;-73
2022/08/17 12:04:31;;;;;;;31.85;28.80;;;24.90;99.90;;;;;;5026449;28;20065;-73
2022/08/17 12:07:05;;;;;;;34.38;31.08;;;24.80;99.90;;;;;;5020108;28;20131;-74
2022/08/17 12:09:37;;;;;;;32.35;29.45;;;24.80;99.90;;;;;;5023699;28;20087;-75
2022/08/17 12:12:11;;;;;;;35.78;32.35;;;24.70;99.90;;;;;;5021755;28;20374;-73
2022/08/17 12:14:39;;;;;;;38.72;35.03;;;24.70;99.90;;;;;;5025042;28;20041;-72
2022/08/17 12:17:10;;;;;;;37.92;34.22;;;24.70;99.90;;;;;;5023071;28;20054;-72
2022/08/17 12:19:38;;;;;;;40.13;35.85;;;24.70;99.90;;;;;;5024182;28;20786;-73
2022/08/17 12:22:22;;;;;;;38.03;34.45;;;24.70;99.90;;;;;;5021801;28;20148;-72
2022/08/17 12:25:00;;;;;;;39.58;35.70;;;24.70;99.90;;;;;;5026512;28;20050;-72
2022/08/17 12:27:32;;;;;;;39.17;35.38;;;24.70;99.90;;;;;;5024083;28;20038;-73
2022/08/17 12:30:02;;;;;;;43.58;39.45;;;24.70;99.90;;;;;;5025074;28;20501;-71
2022/08/17 12:32:34;;;;;;;42.42;38.20;;;24.60;99.90;;;;;;5026828;28;20050;-72
2022/08/17 12:35:02;;;;;;;40.63;36.80;;;24.60;99.90;;;;;;5024230;28;20358;-71
2022/08/17 12:37:31;;;;;;;43.50;39.03;;;24.60;99.90;;;;;;5028178;28;20404;-71
2022/08/17 12:40:22;;;;;;;43.55;39.33;;;24.70;99.90;;;;;;5026892;28;20061;-71
2022/08/17 12:42:59;;;;;;;41.50;37.50;;;24.80;99.90;;;;;;5021843;28;20132;-72
2022/08/17 12:45:29;;;;;;;42.35;38.13;;;24.80;99.90;;;;;;5021634;28;20457;-71
2022/08/17 12:48:06;;;;;;;42.13;37.88;;;24.90;99.90;;;;;;5027655;28;20052;-76
2022/08/17 12:50:34;;;;;;;43.15;38.70;;;24.90;99.90;;;;;;5027197;28;20054;-74
2022/08/17 12:53:00;;;;;;;40.72;36.85;;;24.90;99.90;;;;;;5030446;28;20116;-75
2022/08/17 12:55:27;;;;;;;42.75;38.65;;;25.00;99.90;;;;;;5029325;28;20045;-74
2022/08/17 12:57:58;;;;;;;45.30;40.80;;;25.00;99.90;;;;;;5027795;28;20060;-76
2022/08/17 13:00:40;;;;;;;44.95;40.22;;;25.00;99.90;;;;;;5028635;28;20088;-75
2022/08/17 13:03:18;;;;;;;50.30;45.00;;;25.00;99.90;;;;;;5028469;28;20152;-75
2022/08/17 13:05:54;;;;;;;52.88;47.63;;;24.90;99.90;;;;;;5023279;28;20076;-74
2022/08/17 13:08:45;;;;;;;56.00;50.20;;;24.90;99.90;;;;;;5034120;28;20126;-75
2022/08/17 13:11:14;;;;;;;53.05;47.55;;;24.80;99.90;;;;;;5030258;28;20053;-75
2022/08/17 13:13:47;;;;;;;55.38;49.25;;;24.60;99.90;;;;;;5031736;28;20045;-75
2022/08/17 13:16:13;;;;;;;56.30;50.72;;;24.60;99.90;;;;;;5026744;28;20053;-75
2022/08/17 13:18:53;;;;;;;56.28;50.55;;;24.60;99.90;;;;;;5028170;28;20056;-75
2022/08/17 13:21:18;;;;;;;59.30;53.45;;;24.70;99.90;;;;;;5041696;28;20447;-79
2022/08/17 13:24:04;;;;;;;59.75;53.63;;;24.60;99.90;;;;;;5030752;28;20053;-76
2022/08/17 13:26:35;;;;;;;61.72;55.47;;;24.60;99.90;;;;;;5029655;28;20485;-77
2022/08/17 13:29:05;;;;;;;62.10;55.65;;;24.60;99.90;;;;;;5029456;28;20049;-75